createdAt,value
2019-04-25T00:01:14.145Z,15.74
2019-04-25T00:03:43.682Z,15.84
2019-04-25T00:06:13.325Z,15.78
2019-04-25T00:08:43.070Z,15.89
2019-04-25T00:11:12.392Z,15.79
2019-04-25T00:13:41.901Z,15.88
2019-04-25T00:16:11.672Z,16.02
2019-04-25T00:18:41.624Z,16.26
2019-04-25T00:21:12.228Z,16.23
2019-04-25T00:23:42.971Z,16.15
2019-04-25T00:26:22.540Z,16.24
2019-04-25T00:28:52.411Z,16.18
2019-04-25T00:31:22.059Z,16.17
2019-04-25T00:33:52.496Z,16.17
2019-04-25T00:36:21.833Z,16.25
2019-04-25T00:38:52.004Z,16.26
2019-04-25T00:41:21.376Z,16.25
2019-04-25T00:43:51.712Z,16.28
2019-04-25T00:46:20.430Z,16.22
2019-04-25T00:48:49.802Z,16.32
2019-04-25T00:51:18.625Z,16.33
2019-04-25T00:53:47.127Z,16.39
2019-04-25T00:56:15.638Z,16.40
2019-04-25T00:58:52.900Z,16.31
2019-04-25T01:01:35.348Z,16.14
2019-04-25T01:04:03.901Z,16.07
2019-04-25T01:06:32.668Z,16.16
2019-04-25T01:09:01.601Z,16.19
2019-04-25T01:11:31.405Z,16.12
2019-04-25T01:13:59.969Z,16.07
2019-04-25T01:16:28.484Z,16.09
2019-04-25T01:18:56.992Z,16.36
2019-04-25T01:21:25.563Z,16.43
2019-04-25T01:23:54.530Z,16.50
2019-04-25T01:26:23.966Z,16.46
2019-04-25T01:28:54.074Z,16.43
2019-04-25T01:31:24.907Z,16.48
2019-04-25T01:33:54.606Z,16.41
2019-04-25T01:36:31.141Z,16.39
2019-04-25T01:39:16.368Z,16.35
2019-04-25T01:41:54.929Z,16.41
2019-04-25T01:44:24.473Z,16.43
2019-04-25T01:46:54.485Z,16.38
2019-04-25T01:49:23.910Z,16.34
2019-04-25T01:51:54.437Z,16.30
2019-04-25T01:54:23.804Z,16.30
2019-04-25T01:56:54.657Z,16.33
2019-04-25T01:59:23.768Z,16.34
2019-04-25T02:01:54.343Z,16.39
2019-04-25T02:04:23.226Z,16.35
2019-04-25T02:06:53.674Z,16.24
2019-04-25T02:09:23.569Z,16.31
2019-04-25T02:12:04.810Z,16.26
2019-04-25T02:14:33.718Z,16.25
2019-04-25T02:17:04.340Z,16.23
2019-04-25T02:19:33.926Z,16.20
2019-04-25T02:22:04.004Z,16.07
2019-04-25T02:24:33.852Z,16.07
2019-04-25T02:27:04.571Z,16.06
2019-04-25T02:29:33.302Z,16.00
2019-04-25T02:32:07.882Z,16.25
2019-04-25T02:34:34.624Z,16.37
2019-04-25T02:37:08.371Z,16.32
2019-04-25T02:39:34.809Z,16.23
2019-04-25T02:42:06.853Z,16.10
2019-04-25T02:44:35.598Z,16.17
2019-04-25T02:47:14.903Z,16.28
2019-04-25T02:49:48.052Z,16.32
2019-04-25T02:52:20.939Z,16.25
2019-04-25T02:54:49.447Z,16.16
2019-04-25T02:57:18.046Z,16.19
2019-04-25T02:59:46.530Z,16.19
2019-04-25T03:02:15.722Z,16.24
2019-04-25T03:04:44.673Z,16.11
2019-04-25T03:07:16.813Z,16.13
2019-04-25T03:09:45.154Z,16.07
2019-04-25T03:12:26.653Z,15.99
2019-04-25T03:14:44.757Z,16.06
2019-04-25T03:17:14.282Z,16.18
2019-04-25T03:20:06.672Z,16.15
2019-04-25T03:22:34.467Z,16.14
2019-04-25T03:25:06.853Z,16.14
2019-04-25T03:27:34.050Z,16.05
2019-04-25T03:30:04.448Z,16.12
2019-04-25T03:32:35.509Z,16.10
2019-04-25T03:35:04.513Z,16.02
2019-04-25T03:37:35.183Z,16.26
2019-04-25T03:40:06.517Z,16.33
2019-04-25T03:42:35.217Z,16.41
2019-04-25T03:45:05.053Z,16.39
2019-04-25T03:47:34.580Z,16.32
2019-04-25T03:50:05.866Z,16.35
2019-04-25T03:52:34.947Z,16.30
2019-04-25T03:55:05.136Z,16.35
2019-04-25T03:57:34.027Z,16.27
2019-04-25T04:00:05.363Z,16.23
2019-04-25T04:02:34.413Z,16.23
2019-04-25T04:05:05.623Z,16.27
2019-04-25T04:07:33.697Z,16.28
2019-04-25T04:10:04.538Z,16.33
2019-04-25T04:12:33.920Z,16.22
2019-04-25T04:15:04.775Z,16.20
2019-04-25T04:17:44.098Z,16.25
2019-04-25T04:20:15.898Z,16.19
2019-04-25T04:22:46.114Z,16.10
2019-04-25T04:25:16.228Z,16.14
2019-04-25T04:27:44.741Z,16.31
2019-04-25T04:30:15.357Z,16.45
2019-04-25T04:32:44.183Z,16.42
2019-04-25T04:35:14.471Z,16.42
2019-04-25T04:37:43.194Z,16.42
2019-04-25T04:40:11.900Z,16.46
2019-04-25T04:42:40.415Z,16.51
2019-04-25T04:45:10.141Z,16.48
2019-04-25T04:47:38.679Z,16.33
2019-04-25T04:50:08.945Z,16.33
2019-04-25T04:52:37.491Z,16.41
2019-04-25T04:55:09.772Z,16.36
2019-04-25T04:57:37.067Z,16.46
2019-04-25T05:00:07.497Z,16.41
2019-04-25T05:02:37.783Z,16.43
2019-04-25T05:05:24.790Z,16.39
2019-04-25T05:07:54.978Z,16.39
2019-04-25T05:10:24.561Z,16.44
2019-04-25T05:12:53.374Z,16.39
2019-04-25T05:15:22.998Z,16.42
2019-04-25T05:17:52.069Z,16.45
2019-04-25T05:20:20.722Z,16.38
2019-04-25T05:22:49.217Z,16.29
2019-04-25T05:25:19.048Z,16.26
2019-04-25T05:28:00.121Z,16.29
2019-04-25T05:30:21.214Z,16.25
2019-04-25T05:32:49.825Z,16.10
2019-04-25T05:35:18.434Z,16.05
2019-04-25T05:37:46.958Z,16.13
2019-04-25T05:40:16.248Z,16.24
2019-04-25T05:42:59.380Z,16.28
2019-04-25T05:45:29.670Z,16.23
2019-04-25T05:47:58.226Z,16.28
2019-04-25T05:50:26.739Z,16.34
2019-04-25T05:52:55.295Z,16.38
2019-04-25T05:55:25.158Z,16.30
2019-04-25T05:58:06.496Z,16.35
2019-04-25T06:00:35.011Z,16.39
2019-04-25T06:03:03.863Z,16.31
2019-04-25T06:05:33.534Z,16.27
2019-04-25T06:08:04.106Z,16.25
2019-04-25T06:10:50.339Z,16.25
2019-04-25T06:13:35.436Z,16.23
2019-04-25T06:16:05.751Z,16.14
2019-04-25T06:18:51.052Z,16.08
2019-04-25T06:21:20.027Z,16.07
2019-04-25T06:23:50.244Z,16.03
2019-04-25T06:26:32.751Z,16.07
2019-04-25T06:28:57.067Z,16.15
2019-04-25T06:31:19.880Z,16.12
2019-04-25T06:33:48.528Z,16.03
2019-04-25T06:36:17.164Z,15.98
2019-04-25T06:38:45.650Z,15.98
2019-04-25T06:41:14.165Z,16.04
2019-04-25T06:43:44.415Z,16.05
2019-04-25T06:46:24.811Z,15.95
2019-04-25T06:48:58.304Z,15.92
2019-04-25T06:51:46.072Z,15.92
2019-04-25T06:54:14.728Z,15.96
2019-04-25T06:56:43.508Z,15.94
2019-04-25T06:59:13.646Z,15.95
2019-04-25T07:01:43.907Z,16.03
2019-04-25T07:04:13.939Z,16.04
2019-04-25T07:06:43.551Z,15.98
2019-04-25T07:09:14.597Z,15.99
2019-04-25T07:11:44.055Z,16.01
2019-04-25T07:14:14.230Z,16.03
2019-04-25T07:16:43.390Z,15.99
2019-04-25T07:19:12.154Z,15.95
2019-04-25T07:21:40.633Z,16.00
2019-04-25T07:24:09.668Z,16.00
2019-04-25T07:26:45.924Z,15.98
2019-04-25T07:29:19.201Z,16.04
2019-04-25T07:31:53.971Z,15.99
2019-04-25T07:34:25.271Z,15.87
2019-04-25T07:36:54.494Z,15.86
2019-04-25T07:39:23.643Z,15.91
2019-04-25T07:41:54.002Z,15.92
2019-04-25T07:44:35.348Z,16.06
2019-04-25T07:46:54.240Z,16.03
2019-04-25T07:49:23.447Z,15.98
2019-04-25T07:51:53.686Z,16.09
2019-04-25T07:54:22.241Z,16.11
2019-04-25T07:56:50.806Z,16.14
2019-04-25T07:59:19.344Z,16.16
2019-04-25T08:01:47.843Z,16.23
2019-04-25T08:04:16.352Z,16.25
2019-04-25T08:06:44.855Z,16.26
2019-04-25T08:09:15.430Z,16.27
2019-04-25T08:11:44.145Z,16.30
2019-04-25T08:14:17.117Z,16.30
2019-04-25T08:16:53.840Z,16.37
2019-04-25T08:19:24.842Z,16.34
2019-04-25T08:21:54.967Z,16.41
2019-04-25T08:24:24.531Z,16.54
2019-04-25T08:26:53.481Z,16.69
2019-04-25T08:29:25.229Z,17.05
2019-04-25T08:31:53.655Z,16.98
2019-04-25T08:34:24.224Z,16.84
2019-04-25T08:36:54.327Z,16.81
2019-04-25T08:39:24.081Z,16.78
2019-04-25T08:41:53.966Z,16.83
2019-04-25T08:44:24.114Z,16.79
2019-04-25T08:46:53.570Z,16.85
2019-04-25T08:49:24.048Z,16.91
2019-04-25T08:51:55.811Z,16.89
2019-04-25T08:54:29.049Z,16.96
2019-04-25T08:56:59.293Z,16.93
2019-04-25T08:59:52.264Z,16.94
2019-04-25T09:02:34.938Z,17.03
2019-04-25T09:05:21.918Z,17.15
2019-04-25T09:07:50.531Z,17.19
2019-04-25T09:10:19.099Z,17.21
2019-04-25T09:12:47.592Z,17.26
2019-04-25T09:15:16.292Z,17.37
2019-04-25T09:17:47.051Z,17.42
2019-04-25T09:20:15.637Z,17.50
2019-04-25T09:22:44.631Z,17.56
2019-04-25T09:25:14.535Z,17.58
2019-04-25T09:27:43.796Z,17.64
2019-04-25T09:30:14.357Z,17.72
2019-04-25T09:32:44.614Z,17.79
2019-04-25T09:35:14.187Z,17.84
2019-04-25T09:37:44.818Z,17.87
2019-04-25T09:40:14.428Z,17.94
2019-04-25T09:42:44.774Z,18.15
2019-04-25T09:45:33.342Z,18.23
2019-04-25T09:48:09.468Z,18.41
2019-04-25T09:50:44.218Z,18.52
2019-04-25T09:53:21.841Z,18.59
2019-04-25T09:56:01.647Z,18.68
2019-04-25T09:58:34.455Z,18.87
2019-04-25T10:01:07.323Z,18.94
2019-04-25T10:03:36.631Z,18.81
2019-04-25T10:06:05.744Z,18.76
2019-04-25T10:08:34.391Z,18.71
2019-04-25T10:11:04.074Z,18.62
2019-04-25T10:13:33.705Z,18.61
2019-04-25T10:16:04.884Z,18.61
2019-04-25T10:18:34.147Z,18.60
2019-04-25T10:21:04.759Z,18.64
2019-04-25T10:23:34.286Z,18.58
2019-04-25T10:26:03.833Z,18.63
2019-04-25T10:28:33.598Z,18.70
2019-04-25T10:31:03.598Z,18.71
2019-04-25T10:33:32.366Z,18.67
2019-04-25T10:36:01.320Z,18.61
2019-04-25T10:38:30.280Z,18.54
2019-04-25T10:40:58.982Z,18.59
2019-04-25T10:43:27.550Z,18.67
2019-04-25T10:45:56.111Z,18.66
2019-04-25T10:48:24.630Z,18.62
2019-04-25T10:50:53.857Z,18.74
2019-04-25T10:53:25.353Z,18.84
2019-04-25T10:55:53.790Z,18.99
2019-04-25T10:58:22.436Z,18.99
2019-04-25T11:00:53.063Z,19.07
2019-04-25T11:03:33.320Z,19.04
2019-04-25T11:06:03.966Z,19.01
2019-04-25T11:08:34.006Z,18.94
2019-04-25T11:11:03.800Z,18.94
2019-04-25T11:13:33.958Z,18.80
2019-04-25T11:16:03.542Z,18.86
2019-04-25T11:18:33.884Z,18.85
2019-04-25T11:21:04.285Z,18.89
2019-04-25T11:23:32.943Z,18.85
2019-04-25T11:26:01.607Z,18.89
2019-04-25T11:28:30.097Z,18.90
2019-04-25T11:30:58.692Z,18.94
2019-04-25T11:33:27.746Z,18.78
2019-04-25T11:35:56.579Z,18.86
2019-04-25T11:38:43.503Z,18.94
2019-04-25T11:41:14.198Z,18.84
2019-04-25T11:43:45.371Z,18.80
2019-04-25T11:46:14.159Z,18.87
2019-04-25T11:48:44.197Z,18.98
2019-04-25T11:51:13.854Z,18.94
2019-04-25T11:53:44.074Z,18.89
2019-04-25T11:56:13.757Z,18.95
2019-04-25T11:58:45.099Z,19.11
2019-04-25T12:01:14.221Z,19.55
2019-04-25T12:03:45.099Z,19.94
2019-04-25T12:06:14.158Z,20.15
2019-04-25T12:08:44.089Z,20.54
2019-04-25T12:11:13.902Z,20.56
2019-04-25T12:13:45.681Z,20.41
2019-04-25T12:16:14.439Z,20.33
2019-04-25T12:18:44.772Z,20.59
2019-04-25T12:21:13.648Z,20.71
2019-04-25T12:23:45.039Z,20.50
2019-04-25T12:26:14.231Z,20.99
2019-04-25T12:28:42.836Z,20.39
2019-04-25T12:31:13.120Z,20.71
2019-04-25T12:33:43.365Z,20.76
2019-04-25T12:36:13.554Z,20.75
2019-04-25T12:38:43.865Z,20.54
2019-04-25T12:41:12.531Z,20.90
2019-04-25T12:43:43.866Z,20.77
2019-04-25T12:46:17.043Z,21.00
2019-04-25T12:48:46.036Z,20.83
2019-04-25T12:51:14.962Z,20.26
2019-04-25T12:53:43.856Z,20.51
2019-04-25T12:56:12.479Z,20.53
2019-04-25T12:58:41.270Z,20.11
2019-04-25T13:01:10.615Z,20.00
2019-04-25T13:03:39.174Z,20.36
2019-04-25T13:06:07.770Z,20.51
2019-04-25T13:08:36.290Z,20.50
2019-04-25T13:11:08.545Z,20.63
2019-04-25T13:13:35.317Z,20.37
2019-04-25T13:16:04.402Z,20.89
2019-04-25T13:18:32.940Z,21.30
2019-04-25T13:21:01.478Z,21.18
2019-04-25T13:23:31.960Z,20.84
2019-04-25T13:26:01.573Z,20.78
2019-04-25T13:28:40.635Z,21.05
2019-04-25T13:31:12.950Z,20.94
2019-04-25T13:33:43.324Z,20.68
2019-04-25T13:36:13.472Z,20.36
2019-04-25T13:38:41.944Z,20.32
2019-04-25T13:41:10.535Z,20.34
2019-04-25T13:43:39.238Z,20.34
2019-04-25T13:46:07.887Z,20.20
2019-04-25T13:48:36.525Z,20.15
2019-04-25T13:51:05.279Z,20.07
2019-04-25T13:53:33.783Z,20.07
2019-04-25T13:56:04.613Z,20.05
2019-04-25T13:58:34.192Z,19.87
2019-04-25T14:01:12.432Z,19.71
2019-04-25T14:03:34.042Z,19.91
2019-04-25T14:06:03.916Z,19.84
2019-04-25T14:08:33.518Z,19.82
2019-04-25T14:11:04.928Z,20.22
2019-04-25T14:13:32.429Z,20.12
2019-04-25T14:16:17.519Z,20.37
2019-04-25T14:19:03.614Z,20.56
2019-04-25T14:21:33.518Z,20.42
2019-04-25T14:24:02.056Z,20.12
2019-04-25T14:26:31.292Z,20.05
2019-04-25T14:28:59.905Z,20.16
2019-04-25T14:31:40.606Z,20.14
2019-04-25T14:33:58.593Z,20.20
2019-04-25T14:36:28.580Z,20.31
2019-04-25T14:38:57.167Z,20.20
2019-04-25T14:41:26.081Z,19.92
2019-04-25T14:43:54.814Z,19.78
2019-04-25T14:46:23.312Z,19.65
2019-04-25T14:48:51.822Z,19.82
2019-04-25T14:51:20.393Z,19.74
2019-04-25T14:53:48.924Z,19.67
2019-04-25T14:56:28.060Z,19.74
2019-04-25T14:58:56.544Z,19.71
2019-04-25T15:01:26.065Z,19.69
2019-04-25T15:03:54.566Z,19.67
2019-04-25T15:06:23.412Z,19.76
2019-04-25T15:08:52.900Z,19.77
2019-04-25T15:11:23.154Z,19.78
2019-04-25T15:13:51.731Z,19.78
2019-04-25T15:16:20.316Z,19.64
2019-04-25T15:18:48.871Z,19.62
2019-04-25T15:21:18.806Z,19.58
2019-04-25T15:23:59.346Z,19.57
2019-04-25T15:26:17.627Z,19.44
2019-04-25T15:28:46.083Z,19.55
2019-04-25T15:31:14.712Z,19.58
2019-04-25T15:33:43.197Z,19.44
2019-04-25T15:36:28.591Z,19.37
2019-04-25T15:39:04.416Z,19.24
2019-04-25T15:41:34.894Z,19.23
2019-04-25T15:44:20.956Z,19.18
2019-04-25T15:46:53.862Z,19.22
2019-04-25T15:49:22.364Z,19.13
2019-04-25T15:51:50.836Z,19.07
2019-04-25T15:54:19.494Z,19.11
2019-04-25T15:56:48.057Z,19.02
2019-04-25T15:59:16.643Z,18.98
2019-04-25T16:01:45.239Z,18.84
2019-04-25T16:04:13.789Z,18.80
2019-04-25T16:06:42.259Z,18.72
2019-04-25T16:09:10.748Z,18.71
2019-04-25T16:11:39.262Z,18.70
2019-04-25T16:14:07.859Z,18.67
2019-04-25T16:16:36.352Z,18.70
2019-04-25T16:19:05.094Z,18.71
2019-04-25T16:21:33.773Z,18.73
2019-04-25T16:24:02.401Z,18.72
2019-04-25T16:26:31.460Z,18.65
2019-04-25T16:29:00.016Z,18.50
2019-04-25T16:31:29.194Z,18.55
2019-04-25T16:33:57.820Z,18.53
2019-04-25T16:36:26.352Z,18.67
2019-04-25T16:38:54.849Z,18.67
2019-04-25T16:41:23.663Z,18.64
2019-04-25T16:43:53.808Z,18.61
2019-04-25T16:46:23.196Z,18.66
2019-04-25T16:48:51.777Z,18.70
2019-04-25T16:51:20.327Z,18.74
2019-04-25T16:53:48.807Z,18.71
2019-04-25T16:56:17.314Z,18.58
2019-04-25T16:58:45.891Z,18.54
2019-04-25T17:01:14.656Z,18.45
2019-04-25T17:03:43.681Z,18.41
2019-04-25T17:06:12.326Z,18.44
2019-04-25T17:08:40.819Z,18.31
2019-04-25T17:11:09.770Z,18.28
2019-04-25T17:13:39.893Z,18.12
2019-04-25T17:16:25.711Z,18.01
2019-04-25T17:18:55.889Z,18.03
2019-04-25T17:21:24.436Z,18.06
2019-04-25T17:23:52.897Z,18.01
2019-04-25T17:26:21.956Z,18.07
2019-04-25T17:28:52.089Z,18.07
2019-04-25T17:31:28.460Z,18.06
2019-04-25T17:34:10.766Z,18.10
2019-04-25T17:36:46.719Z,17.94
2019-04-25T17:39:35.914Z,18.00
2019-04-25T17:42:04.546Z,17.94
2019-04-25T17:44:32.991Z,17.96
2019-04-25T17:47:06.412Z,18.06
2019-04-25T17:49:32.817Z,18.17
2019-04-25T17:52:01.459Z,18.13
2019-04-25T17:54:30.025Z,18.01
2019-04-25T17:56:58.516Z,17.96
2019-04-25T17:59:27.177Z,17.98
2019-04-25T18:01:55.738Z,17.78
2019-04-25T18:04:24.346Z,17.83
2019-04-25T18:06:54.420Z,17.94
2019-04-25T18:09:23.371Z,17.93
2019-04-25T18:11:51.964Z,17.96
2019-04-25T18:14:20.504Z,17.89
2019-04-25T18:16:49.851Z,17.76
2019-04-25T18:19:32.268Z,17.74
2019-04-25T18:22:02.677Z,17.89
2019-04-25T18:24:48.839Z,17.90
2019-04-25T18:27:19.043Z,17.97
2019-04-25T18:29:47.682Z,17.99
2019-04-25T18:32:16.149Z,17.86
2019-04-25T18:34:49.270Z,17.86
2019-04-25T18:37:37.152Z,17.97
2019-04-25T18:40:20.592Z,17.98
2019-04-25T18:42:59.689Z,17.96
2019-04-25T18:45:29.927Z,17.87
2019-04-25T18:47:58.469Z,17.82
2019-04-25T18:50:28.680Z,17.81
2019-04-25T18:53:14.655Z,17.87
2019-04-25T18:55:50.312Z,17.87
2019-04-25T18:58:36.195Z,17.75
2019-04-25T19:01:22.631Z,17.72
2019-04-25T19:03:58.758Z,17.86
2019-04-25T19:06:28.007Z,17.89
2019-04-25T19:08:56.557Z,17.87
2019-04-25T19:11:25.119Z,17.87
2019-04-25T19:13:53.680Z,17.84
2019-04-25T19:16:22.221Z,17.78
2019-04-25T19:18:51.611Z,17.75
2019-04-25T19:21:20.278Z,17.81
2019-04-25T19:23:48.808Z,17.78
2019-04-25T19:26:17.419Z,17.59
2019-04-25T19:28:46.897Z,17.53
2019-04-25T19:31:15.372Z,17.46
2019-04-25T19:33:43.932Z,17.54
2019-04-25T19:36:12.469Z,17.61
2019-04-25T19:38:41.912Z,17.63
2019-04-25T19:41:14.932Z,17.64
2019-04-25T19:43:56.571Z,17.62
2019-04-25T19:46:38.439Z,17.62
2019-04-25T19:49:07.398Z,17.70
2019-04-25T19:51:36.213Z,17.75
2019-04-25T19:54:06.176Z,17.75
2019-04-25T19:56:35.217Z,17.78
2019-04-25T19:59:03.973Z,17.74
2019-04-25T20:01:32.598Z,17.76
2019-04-25T20:04:11.887Z,17.74
2019-04-25T20:06:57.746Z,17.64
2019-04-25T20:09:39.407Z,17.62
2019-04-25T20:12:07.916Z,17.80
2019-04-25T20:14:36.398Z,17.67
2019-04-25T20:17:04.958Z,17.55
2019-04-25T20:19:33.505Z,17.53
2019-04-25T20:22:01.957Z,17.64
2019-04-25T20:24:30.407Z,17.72
2019-04-25T20:26:58.923Z,17.75
2019-04-25T20:29:27.554Z,17.60
2019-04-25T20:31:56.032Z,17.58
2019-04-25T20:34:24.526Z,17.47
2019-04-25T20:36:53.693Z,17.26
2019-04-25T20:39:22.151Z,17.27
2019-04-25T20:41:50.656Z,17.32
2019-04-25T20:44:19.168Z,17.14
2019-04-25T20:46:48.478Z,16.83
2019-04-25T20:49:17.011Z,16.74
2019-04-25T20:51:47.029Z,16.62
2019-04-25T20:54:15.604Z,16.33
2019-04-25T20:56:44.187Z,16.51
2019-04-25T20:59:12.644Z,16.49
2019-04-25T21:01:41.233Z,16.38
2019-04-25T21:04:13.344Z,16.50
2019-04-25T21:06:41.958Z,16.49
2019-04-25T21:09:10.527Z,16.49
2019-04-25T21:11:39.045Z,16.42
2019-04-25T21:14:09.207Z,16.32
2019-04-25T21:16:45.257Z,16.37
2019-04-25T21:19:23.990Z,16.38
2019-04-25T21:21:52.546Z,16.17
2019-04-25T21:24:21.009Z,16.19
2019-04-25T21:26:50.227Z,16.27
2019-04-25T21:29:19.868Z,16.30
2019-04-25T21:31:48.357Z,16.29
2019-04-25T21:34:25.799Z,16.38
2019-04-25T21:36:47.158Z,16.43
2019-04-25T21:39:29.408Z,16.48
2019-04-25T21:41:59.832Z,16.39
2019-04-25T21:44:28.726Z,16.31
2019-04-25T21:46:57.198Z,16.21
2019-04-25T21:49:26.769Z,16.24
2019-04-25T21:51:55.265Z,16.16
2019-04-25T21:54:23.743Z,16.14
2019-04-25T21:56:53.291Z,16.00
2019-04-25T21:59:22.720Z,15.85
2019-04-25T22:01:51.351Z,15.84
2019-04-25T22:04:19.823Z,15.79
2019-04-25T22:06:48.682Z,15.67
2019-04-25T22:09:21.572Z,15.72
2019-04-25T22:11:50.246Z,15.76
2019-04-25T22:14:19.077Z,15.77
2019-04-25T22:16:47.879Z,15.71
2019-04-25T22:19:16.858Z,15.83
2019-04-25T22:21:45.656Z,15.89
2019-04-25T22:24:14.822Z,15.93
2019-04-25T22:26:45.003Z,16.03
2019-04-25T22:29:13.551Z,16.26
2019-04-25T22:31:59.611Z,16.20
2019-04-25T22:34:32.928Z,16.22
2019-04-25T22:37:02.088Z,16.33
2019-04-25T22:39:30.636Z,16.39
2019-04-25T22:41:59.750Z,16.39
2019-04-25T22:44:29.713Z,16.40
2019-04-25T22:46:58.666Z,16.52
2019-04-25T22:49:27.204Z,16.51
2019-04-25T22:51:55.688Z,16.50
2019-04-25T22:54:25.149Z,16.50
2019-04-25T22:56:53.650Z,16.56
2019-04-25T22:59:22.399Z,16.54
2019-04-25T23:02:09.589Z,16.53
2019-04-25T23:05:05.500Z,15.86
2019-04-25T23:07:28.058Z,15.19
2019-04-25T23:09:56.721Z,14.52
2019-04-25T23:12:25.487Z,14.18
2019-04-25T23:14:53.964Z,13.73
2019-04-25T23:17:22.442Z,13.20
2019-04-25T23:19:51.109Z,12.88
2019-04-25T23:22:19.597Z,12.58
2019-04-25T23:25:01.606Z,12.46
2019-04-25T23:27:31.799Z,12.42
2019-04-25T23:30:00.267Z,12.31
2019-04-25T23:32:29.060Z,12.19
2019-04-25T23:34:57.566Z,12.03
2019-04-25T23:37:26.133Z,11.89
2019-04-25T23:39:54.670Z,11.90
2019-04-25T23:42:23.159Z,11.83
2019-04-25T23:44:51.893Z,11.70
2019-04-25T23:47:20.392Z,11.60
2019-04-25T23:49:48.865Z,11.58
2019-04-25T23:52:17.692Z,11.35
2019-04-25T23:54:46.263Z,11.13
2019-04-25T23:57:15.490Z,10.97
2019-04-25T23:59:44.225Z,10.97
